Time;durP1;ratioP1;P1;durP2;ratioP2;P2;SDS_P1;SDS_P2;PMS_P1;PMS_P2;Temp;Humidity;BMP_temperature;BMP_pressure;BME280_temperature;BME280_humidity;BME280_pressure;Samples;Min_cycle;Max_cycle;Signal;HPM_P1;HPM_P2
2023/08/03 00:01:25;;;;;;;29.45;6.72;;;;;;;;;;5001362;28;20050;-66
2023/08/03 00:03:50;;;;;;;20.92;6.15;;;;;;;;;;5003750;28;20056;-65
2023/08/03 00:06:16;;;;;;;28.15;7.05;;;;;;;;;;5002845;28;20112;-65
2023/08/03 00:08:42;;;;;;;18.90;5.80;;;;;;;;;;5000970;28;20045;-66
2023/08/03 00:11:09;;;;;;;29.90;7.32;;;;;;;;;;5002419;28;20076;-66
2023/08/03 00:13:35;;;;;;;27.27;6.97;;;;;;;;;;5001461;28;20754;-64
2023/08/03 00:16:01;;;;;;;21.88;6.35;;;;;;;;;;5002363;28;20046;-66
2023/08/03 00:18:27;;;;;;;23.33;6.32;;;;;;;;;;4987747;28;20055;-66
2023/08/03 00:20:53;;;;;;;21.30;6.65;;;;;;;;;;5004240;28;20049;-65
2023/08/03 00:23:19;;;;;;;23.33;6.50;;;;;;;;;;5002444;28;20061;-65
2023/08/03 00:25:45;;;;;;;19.38;5.45;;;;;;;;;;5001613;28;20112;-64
2023/08/03 00:28:11;;;;;;;20.40;6.28;;;;;;;;;;5000128;28;20450;-66
2023/08/03 00:30:37;;;;;;;20.23;6.07;;;;;;;;;;5002760;28;20519;-66
2023/08/03 00:33:03;;;;;;;25.27;6.63;;;;;;;;;;5003073;28;20057;-65
2023/08/03 00:35:29;;;;;;;28.30;6.93;;;;;;;;;;5005810;28;20107;-66
2023/08/03 00:37:57;;;;;;;23.75;7.45;;;;;;;;;;5002227;28;20054;-64
2023/08/03 00:40:24;;;;;;;21.63;6.25;;;;;;;;;;5004149;28;20096;-66
2023/08/03 00:42:49;;;;;;;24.52;6.50;;;;;;;;;;5000368;28;20551;-66
2023/08/03 00:45:16;;;;;;;20.05;6.18;;;;;;;;;;5004179;28;20049;-65
2023/08/03 00:47:43;;;;;;;27.58;6.72;;;;;;;;;;5001721;28;20076;-65
2023/08/03 00:50:09;;;;;;;26.80;6.40;;;;;;;;;;5004076;28;20243;-64
2023/08/03 00:52:35;;;;;;;21.73;6.65;;;;;;;;;;5001333;28;20053;-65
2023/08/03 00:55:02;;;;;;;21.63;6.90;;;;;;;;;;5003681;28;20400;-66
2023/08/03 00:57:28;;;;;;;20.55;6.43;;;;;;;;;;4997246;28;20107;-64
2023/08/03 00:59:55;;;;;;;21.90;6.53;;;;;;;;;;5002404;28;20064;-64
2023/08/03 01:02:21;;;;;;;30.73;6.95;;;;;;;;;;5001578;28;20388;-65
2023/08/03 01:04:48;;;;;;;24.42;6.45;;;;;;;;;;5000485;28;22278;-65
2023/08/03 01:07:14;;;;;;;25.58;6.57;;;;;;;;;;5001649;28;20045;-65
2023/08/03 01:09:40;;;;;;;19.63;6.35;;;;;;;;;;5004539;28;20057;-66
2023/08/03 01:12:07;;;;;;;20.63;6.13;;;;;;;;;;5001721;28;20060;-65
2023/08/03 01:14:33;;;;;;;21.30;6.10;;;;;;;;;;5016667;28;20103;-64
2023/08/03 01:16:59;;;;;;;22.95;6.70;;;;;;;;;;5001838;28;20075;-64
2023/08/03 01:19:26;;;;;;;23.77;6.82;;;;;;;;;;5002625;28;20058;-65
2023/08/03 01:21:52;;;;;;;26.70;6.10;;;;;;;;;;4999876;28;20042;-66
2023/08/03 01:24:19;;;;;;;24.88;6.75;;;;;;;;;;5003145;28;20142;-66
2023/08/03 01:26:44;;;;;;;25.73;6.40;;;;;;;;;;5000900;28;20057;-66
2023/08/03 01:29:11;;;;;;;21.23;6.30;;;;;;;;;;5002034;28;20042;-67
2023/08/03 01:31:38;;;;;;;21.52;5.90;;;;;;;;;;5001704;28;20562;-66
2023/08/03 01:34:05;;;;;;;22.95;5.90;;;;;;;;;;5000926;28;20277;-65
2023/08/03 01:36:30;;;;;;;29.70;6.80;;;;;;;;;;5004743;28;20614;-66
2023/08/03 01:39:08;;;;;;;25.35;6.82;;;;;;;;;;5001747;28;20061;-66
2023/08/03 01:41:35;;;;;;;23.75;5.80;;;;;;;;;;4999701;28;20049;-66
2023/08/03 01:44:21;;;;;;;26.90;6.45;;;;;;;;;;5004065;28;20079;-64
2023/08/03 01:46:47;;;;;;;22.00;6.38;;;;;;;;;;4999537;28;20069;-65
2023/08/03 01:49:13;;;;;;;23.08;5.40;;;;;;;;;;5003742;28;20065;-65
2023/08/03 01:51:40;;;;;;;24.50;6.03;;;;;;;;;;5002909;28;20050;-65
2023/08/03 01:54:07;;;;;;;23.42;5.88;;;;;;;;;;5004780;28;20508;-66
2023/08/03 01:56:33;;;;;;;22.85;6.78;;;;;;;;;;5003574;28;20163;-65
2023/08/03 01:58:59;;;;;;;20.45;5.97;;;;;;;;;;5005777;28;20053;-65
2023/08/03 02:01:25;;;;;;;23.40;6.32;;;;;;;;;;5000264;28;20057;-66
2023/08/03 02:03:51;;;;;;;19.85;6.05;;;;;;;;;;5004708;28;20107;-65
2023/08/03 02:06:16;;;;;;;23.48;6.57;;;;;;;;;;5004940;28;20057;-66
2023/08/03 02:08:42;;;;;;;23.88;6.97;;;;;;;;;;5003639;28;20057;-65
2023/08/03 02:11:08;;;;;;;24.88;6.55;;;;;;;;;;5004770;28;20809;-65
2023/08/03 02:13:35;;;;;;;22.23;7.20;;;;;;;;;;5003037;28;20503;-64
2023/08/03 02:16:04;;;;;;;24.08;6.78;;;;;;;;;;5004245;28;20045;-65
2023/08/03 02:18:30;;;;;;;24.85;6.80;;;;;;;;;;5002872;28;20278;-65
2023/08/03 02:20:56;;;;;;;21.23;6.85;;;;;;;;;;5006699;28;20069;-65
2023/08/03 02:23:23;;;;;;;23.77;6.18;;;;;;;;;;5003985;28;21378;-65
2023/08/03 02:25:51;;;;;;;24.90;6.88;;;;;;;;;;5005026;28;20415;-65
2023/08/03 02:28:17;;;;;;;29.73;7.32;;;;;;;;;;5003801;28;20272;-65
2023/08/03 02:30:43;;;;;;;27.45;7.10;;;;;;;;;;5004358;28;20458;-65
2023/08/03 02:33:09;;;;;;;22.25;6.55;;;;;;;;;;5004750;28;20062;-65
2023/08/03 02:35:37;;;;;;;20.23;5.82;;;;;;;;;;5006844;28;20049;-65
2023/08/03 02:38:03;;;;;;;26.05;6.60;;;;;;;;;;5002569;28;20065;-65
2023/08/03 02:40:29;;;;;;;27.50;6.97;;;;;;;;;;5003828;28;20049;-64
2023/08/03 02:42:55;;;;;;;21.45;6.65;;;;;;;;;;5004193;28;20107;-66
2023/08/03 02:45:21;;;;;;;18.30;6.57;;;;;;;;;;5004243;28;20606;-66
2023/08/03 02:47:47;;;;;;;30.20;7.80;;;;;;;;;;5004388;28;22452;-66
2023/08/03 02:50:13;;;;;;;27.02;6.45;;;;;;;;;;5004171;28;20042;-64
2023/08/03 02:52:39;;;;;;;21.48;6.57;;;;;;;;;;5003256;28;20670;-65
2023/08/03 02:55:05;;;;;;;20.55;6.38;;;;;;;;;;5003147;28;20418;-65
2023/08/03 02:57:31;;;;;;;18.58;6.60;;;;;;;;;;5001254;28;20060;-64
2023/08/03 02:59:57;;;;;;;24.35;6.50;;;;;;;;;;5003097;28;20042;-65
2023/08/03 03:02:23;;;;;;;25.20;6.75;;;;;;;;;;5000574;28;20049;-65
2023/08/03 03:04:52;;;;;;;21.20;6.88;;;;;;;;;;5004332;28;20060;-65
2023/08/03 03:07:18;;;;;;;21.13;6.43;;;;;;;;;;5004780;28;20041;-65
2023/08/03 03:09:44;;;;;;;21.33;6.75;;;;;;;;;;5003824;28;20056;-64
2023/08/03 03:12:10;;;;;;;25.65;6.22;;;;;;;;;;5002840;28;20065;-67
2023/08/03 03:14:36;;;;;;;22.50;6.32;;;;;;;;;;5002871;28;20045;-65
2023/08/03 03:17:02;;;;;;;23.20;6.90;;;;;;;;;;5003279;28;20051;-67
2023/08/03 03:19:28;;;;;;;25.73;6.45;;;;;;;;;;5003722;28;20050;-66
2023/08/03 03:21:54;;;;;;;26.95;6.68;;;;;;;;;;5004359;28;20057;-64
2023/08/03 03:24:20;;;;;;;19.40;6.32;;;;;;;;;;5002985;28;20061;-66
2023/08/03 03:26:46;;;;;;;19.77;6.00;;;;;;;;;;5000133;28;20060;-65
2023/08/03 03:29:12;;;;;;;22.02;6.10;;;;;;;;;;5001736;28;20049;-65
2023/08/03 03:31:38;;;;;;;18.75;6.18;;;;;;;;;;5017656;28;20080;-67
2023/08/03 03:34:04;;;;;;;24.33;5.97;;;;;;;;;;5003808;28;20075;-64
2023/08/03 03:36:30;;;;;;;18.75;5.90;;;;;;;;;;5001622;28;20046;-64
2023/08/03 03:38:56;;;;;;;17.85;5.38;;;;;;;;;;5003324;28;20049;-66
2023/08/03 03:41:22;;;;;;;19.70;5.75;;;;;;;;;;5002108;28;20058;-67
2023/08/03 03:43:48;;;;;;;21.05;6.25;;;;;;;;;;5002098;28;20522;-64
2023/08/03 03:46:14;;;;;;;20.58;5.63;;;;;;;;;;5003186;28;20518;-64
2023/08/03 03:48:40;;;;;;;14.57;5.45;;;;;;;;;;5001450;28;20135;-66
2023/08/03 03:51:06;;;;;;;18.92;5.88;;;;;;;;;;5001001;28;20053;-66
2023/08/03 03:53:31;;;;;;;15.40;4.97;;;;;;;;;;5000520;28;20764;-66
2023/08/03 03:55:58;;;;;;;20.20;5.20;;;;;;;;;;5002164;28;20058;-66
2023/08/03 03:58:23;;;;;;;22.30;6.07;;;;;;;;;;5001234;28;20139;-66
2023/08/03 04:00:49;;;;;;;22.38;5.10;;;;;;;;;;5003606;28;20057;-66
2023/08/03 04:03:15;;;;;;;20.27;5.40;;;;;;;;;;5002235;28;20038;-66
2023/08/03 04:05:41;;;;;;;20.42;5.25;;;;;;;;;;5003205;28;20060;-64
2023/08/03 04:08:07;;;;;;;14.32;4.82;;;;;;;;;;5001875;28;20061;-66
2023/08/03 04:10:35;;;;;;;14.75;4.82;;;;;;;;;;5002967;28;20080;-66
2023/08/03 04:13:01;;;;;;;18.60;5.30;;;;;;;;;;5000303;28;20042;-66
2023/08/03 04:15:27;;;;;;;19.55;4.93;;;;;;;;;;5002159;28;20474;-66
2023/08/03 04:17:53;;;;;;;20.52;5.03;;;;;;;;;;5000930;28;20045;-65
2023/08/03 04:20:19;;;;;;;20.75;5.38;;;;;;;;;;5002468;28;20676;-66
2023/08/03 04:22:44;;;;;;;23.48;5.15;;;;;;;;;;5005598;28;20064;-66
2023/08/03 04:25:10;;;;;;;17.42;4.75;;;;;;;;;;5004756;28;20107;-65
2023/08/03 04:27:36;;;;;;;17.17;4.38;;;;;;;;;;5001763;28;20057;-65
2023/08/03 04:30:03;;;;;;;22.00;5.07;;;;;;;;;;5005533;28;20060;-66
2023/08/03 04:32:29;;;;;;;24.98;4.93;;;;;;;;;;5000998;28;20606;-65
2023/08/03 04:34:56;;;;;;;14.43;4.85;;;;;;;;;;5004490;28;20079;-65
2023/08/03 04:37:22;;;;;;;15.25;4.32;;;;;;;;;;4999841;28;20153;-66
2023/08/03 04:39:49;;;;;;;23.70;5.32;;;;;;;;;;5003766;28;20107;-65
2023/08/03 04:42:15;;;;;;;17.45;4.70;;;;;;;;;;4999357;28;20132;-66
2023/08/03 04:44:41;;;;;;;17.65;4.97;;;;;;;;;;5004996;28;20060;-65
2023/08/03 04:47:06;;;;;;;24.55;5.10;;;;;;;;;;5001568;28;20049;-68
2023/08/03 04:49:32;;;;;;;19.77;5.38;;;;;;;;;;5002354;28;20582;-65
2023/08/03 04:51:58;;;;;;;17.85;4.80;;;;;;;;;;4999311;28;20058;-65
2023/08/03 04:54:24;;;;;;;16.88;4.65;;;;;;;;;;5002223;28;20054;-66
2023/08/03 04:56:51;;;;;;;21.10;5.00;;;;;;;;;;4999170;28;20054;-65
2023/08/03 04:59:17;;;;;;;18.13;4.97;;;;;;;;;;5000216;28;20070;-66
2023/08/03 05:01:43;;;;;;;21.90;4.78;;;;;;;;;;5001023;28;20053;-66
2023/08/03 05:04:09;;;;;;;15.65;4.60;;;;;;;;;;5004376;28;20068;-66
2023/08/03 05:06:35;;;;;;;18.63;5.43;;;;;;;;;;4999192;28;20133;-65
2023/08/03 05:09:02;;;;;;;21.40;4.78;;;;;;;;;;5000611;28;20095;-65
2023/08/03 05:11:28;;;;;;;17.23;4.68;;;;;;;;;;5000833;28;20073;-66
2023/08/03 05:13:54;;;;;;;14.32;4.85;;;;;;;;;;5002906;28;21979;-65
2023/08/03 05:16:24;;;;;;;16.98;4.43;;;;;;;;;;5001003;28;20534;-65
2023/08/03 05:18:50;;;;;;;14.02;4.35;;;;;;;;;;5000581;28;20056;-65
2023/08/03 05:21:17;;;;;;;14.18;4.38;;;;;;;;;;5005766;28;20274;-66
2023/08/03 05:23:45;;;;;;;15.88;4.50;;;;;;;;;;5001677;28;20056;-65
2023/08/03 05:26:11;;;;;;;12.75;3.90;;;;;;;;;;5006576;28;20095;-66
2023/08/03 05:28:37;;;;;;;19.17;4.25;;;;;;;;;;5002935;28;20454;-65
2023/08/03 05:31:05;;;;;;;14.50;4.25;;;;;;;;;;5008678;28;20056;-66
2023/08/03 05:33:35;;;;;;;11.60;3.72;;;;;;;;;;5003920;28;20060;-66
2023/08/03 05:36:02;;;;;;;11.68;4.32;;;;;;;;;;5006933;28;20049;-65
2023/08/03 05:38:28;;;;;;;16.92;3.85;;;;;;;;;;5002917;28;20545;-65
2023/08/03 05:40:54;;;;;;;17.27;3.53;;;;;;;;;;5004635;28;22082;-66
2023/08/03 05:43:24;;;;;;;17.30;4.10;;;;;;;;;;5004136;28;20045;-65
2023/08/03 05:45:56;;;;;;;14.80;3.67;;;;;;;;;;5006101;28;20598;-65
2023/08/03 05:48:22;;;;;;;15.18;3.85;;;;;;;;;;5004340;28;22172;-67
2023/08/03 05:50:50;;;;;;;9.02;2.95;;;;;;;;;;5006298;28;20041;-66
2023/08/03 05:53:17;;;;;;;14.10;2.80;;;;;;;;;;5008568;28;20057;-65
2023/08/03 05:55:44;;;;;;;8.15;2.45;;;;;;;;;;5011558;28;20332;-66
2023/08/03 05:58:12;;;;;;;11.45;2.40;;;;;;;;;;5003286;28;20846;-65
2023/08/03 06:00:41;;;;;;;12.45;2.20;;;;;;;;;;5005798;28;20145;-66
2023/08/03 06:03:16;;;;;;;9.18;1.83;;;;;;;;;;5005374;28;20467;-66
2023/08/03 06:05:43;;;;;;;13.60;2.22;;;;;;;;;;5001319;28;20057;-66
2023/08/03 06:08:15;;;;;;;9.63;2.10;;;;;;;;;;5003216;28;20068;-66
2023/08/03 06:10:41;;;;;;;13.38;2.13;;;;;;;;;;5006331;28;20107;-66
2023/08/03 06:13:14;;;;;;;9.57;1.88;;;;;;;;;;5004031;28;20053;-66
2023/08/03 06:15:41;;;;;;;11.82;2.08;;;;;;;;;;5004163;28;20554;-67
2023/08/03 06:18:12;;;;;;;15.93;2.83;;;;;;;;;;5004045;28;20053;-66
2023/08/03 06:20:42;;;;;;;7.35;1.95;;;;;;;;;;5009425;28;20053;-67
2023/08/03 06:23:16;;;;;;;9.85;2.35;;;;;;;;;;5003405;28;20494;-66
2023/08/03 06:25:42;;;;;;;9.90;2.05;;;;;;;;;;5006499;28;20053;-65
2023/08/03 06:28:10;;;;;;;12.75;2.65;;;;;;;;;;5003438;28;20061;-65
2023/08/03 06:30:37;;;;;;;6.70;1.98;;;;;;;;;;5005846;28;20053;-66
2023/08/03 06:33:04;;;;;;;8.45;1.80;;;;;;;;;;5004641;28;20061;-67
2023/08/03 06:35:41;;;;;;;9.90;2.40;;;;;;;;;;5005659;28;20053;-66
2023/08/03 06:38:11;;;;;;;7.35;2.08;;;;;;;;;;5003653;28;20067;-65
2023/08/03 06:40:36;;;;;;;10.52;2.28;;;;;;;;;;5005584;28;20076;-66
2023/08/03 06:43:03;;;;;;;9.45;2.08;;;;;;;;;;5003891;28;20844;-67
2023/08/03 06:45:32;;;;;;;8.77;1.92;;;;;;;;;;5004200;28;20061;-66
2023/08/03 06:48:00;;;;;;;7.43;1.83;;;;;;;;;;5000840;28;20085;-66
2023/08/03 06:50:28;;;;;;;8.13;1.70;;;;;;;;;;5005868;28;20072;-65
2023/08/03 06:52:55;;;;;;;6.20;1.60;;;;;;;;;;5002605;28;20045;-66
2023/08/03 06:55:21;;;;;;;6.93;1.73;;;;;;;;;;5003374;28;20045;-66
2023/08/03 06:57:47;;;;;;;7.13;1.88;;;;;;;;;;5002079;28;20073;-66
2023/08/03 07:00:14;;;;;;;5.63;1.30;;;;;;;;;;5004688;28;20778;-66
2023/08/03 07:02:40;;;;;;;9.80;1.45;;;;;;;;;;5005297;28;20045;-66
2023/08/03 07:05:07;;;;;;;8.40;1.48;;;;;;;;;;5008400;28;20056;-67
2023/08/03 07:07:33;;;;;;;3.47;1.58;;;;;;;;;;5007228;28;20056;-68
2023/08/03 07:10:01;;;;;;;7.65;1.48;;;;;;;;;;5007501;28;20049;-68
2023/08/03 07:12:28;;;;;;;4.60;1.50;;;;;;;;;;5004199;28;20128;-66
2023/08/03 07:14:55;;;;;;;4.22;1.70;;;;;;;;;;5002634;28;20046;-68
2023/08/03 07:17:22;;;;;;;17.25;1.70;;;;;;;;;;5002610;28;20473;-67
2023/08/03 07:19:51;;;;;;;8.00;1.70;;;;;;;;;;5004728;28;20073;-67
2023/08/03 07:22:24;;;;;;;13.50;2.03;;;;;;;;;;5010130;28;20053;-67
2023/08/03 07:24:50;;;;;;;6.07;1.90;;;;;;;;;;5004742;28;20133;-67
2023/08/03 07:27:16;;;;;;;10.40;1.83;;;;;;;;;;5001782;28;20088;-66
2023/08/03 07:29:43;;;;;;;3.65;1.40;;;;;;;;;;5002264;28;20164;-66
2023/08/03 07:32:11;;;;;;;9.25;1.70;;;;;;;;;;5000477;28;20049;-67
2023/08/03 07:34:37;;;;;;;6.03;1.80;;;;;;;;;;5003071;28;20107;-66
2023/08/03 07:37:04;;;;;;;8.95;1.73;;;;;;;;;;5002427;28;20049;-66
2023/08/03 07:39:29;;;;;;;9.05;2.03;;;;;;;;;;4997347;28;20748;-66
2023/08/03 07:41:56;;;;;;;6.65;1.70;;;;;;;;;;5002501;28;20053;-66
2023/08/03 07:44:21;;;;;;;11.10;1.90;;;;;;;;;;5005922;28;20118;-65
2023/08/03 07:46:48;;;;;;;3.88;1.77;;;;;;;;;;5002430;28;20053;-65
2023/08/03 07:49:14;;;;;;;8.20;1.65;;;;;;;;;;5005499;28;20064;-66
2023/08/03 07:51:41;;;;;;;4.10;1.52;;;;;;;;;;5003708;28;20960;-65
2023/08/03 07:54:07;;;;;;;6.32;1.70;;;;;;;;;;5006688;28;20124;-66
2023/08/03 07:56:33;;;;;;;7.53;1.75;;;;;;;;;;5004284;28;20581;-66
2023/08/03 07:59:00;;;;;;;10.45;2.17;;;;;;;;;;5008538;28;20053;-69
2023/08/03 08:01:26;;;;;;;8.30;1.88;;;;;;;;;;5004250;28;20041;-67
2023/08/03 08:03:52;;;;;;;5.93;1.83;;;;;;;;;;5005160;28;20092;-69
2023/08/03 08:06:20;;;;;;;5.47;1.90;;;;;;;;;;4995860;28;21972;-66
2023/08/03 08:08:48;;;;;;;5.60;1.75;;;;;;;;;;4996214;28;20566;-68
2023/08/03 08:11:17;;;;;;;10.68;1.77;;;;;;;;;;5002482;28;20146;-66
2023/08/03 08:13:44;;;;;;;9.02;2.05;;;;;;;;;;5001505;28;20486;-69
2023/08/03 08:16:13;;;;;;;8.38;2.00;;;;;;;;;;5014350;28;20041;-68
2023/08/03 08:18:39;;;;;;;7.40;2.45;;;;;;;;;;5001032;28;20052;-68
2023/08/03 08:21:07;;;;;;;12.05;2.50;;;;;;;;;;5009414;28;20049;-67
2023/08/03 08:23:34;;;;;;;7.78;2.17;;;;;;;;;;4999979;28;20232;-67
2023/08/03 08:26:00;;;;;;;7.35;2.22;;;;;;;;;;4998592;28;20155;-67
2023/08/03 08:28:28;;;;;;;10.05;2.47;;;;;;;;;;4999048;28;20049;-68
2023/08/03 08:30:54;;;;;;;7.03;1.80;;;;;;;;;;5001232;28;20056;-67
2023/08/03 08:33:21;;;;;;;5.95;2.13;;;;;;;;;;5002934;28;20619;-67
2023/08/03 08:35:49;;;;;;;13.60;2.47;;;;;;;;;;5000562;28;20143;-67
2023/08/03 08:38:16;;;;;;;9.63;2.35;;;;;;;;;;5000518;28;20098;-66
2023/08/03 08:40:47;;;;;;;10.93;2.05;;;;;;;;;;5002625;28;21987;-66
2023/08/03 08:43:13;;;;;;;10.85;2.50;;;;;;;;;;5002176;28;20688;-67
2023/08/03 08:45:39;;;;;;;11.38;2.50;;;;;;;;;;5003163;28;20495;-66
2023/08/03 08:48:05;;;;;;;5.28;1.98;;;;;;;;;;4998026;28;20049;-65
2023/08/03 08:50:32;;;;;;;10.77;2.80;;;;;;;;;;5003735;28;20107;-67
2023/08/03 08:52:58;;;;;;;8.23;2.15;;;;;;;;;;5000041;28;20077;-67
2023/08/03 08:55:27;;;;;;;7.13;2.25;;;;;;;;;;5003371;28;20189;-66
2023/08/03 08:57:55;;;;;;;9.40;2.00;;;;;;;;;;5000602;28;20072;-67
2023/08/03 09:00:24;;;;;;;10.75;2.00;;;;;;;;;;5004363;28;20056;-66
2023/08/03 09:03:00;;;;;;;11.52;2.22;;;;;;;;;;5005159;28;20053;-67
2023/08/03 09:05:28;;;;;;;7.18;2.00;;;;;;;;;;5005650;28;20049;-66
2023/08/03 09:08:03;;;;;;;4.70;2.00;;;;;;;;;;5004998;28;20132;-68
2023/08/03 09:10:30;;;;;;;7.25;2.10;;;;;;;;;;5005876;28;20061;-69
2023/08/03 09:12:57;;;;;;;4.20;2.03;;;;;;;;;;5003539;28;20151;-71
2023/08/03 09:15:40;;;;;;;14.02;2.50;;;;;;;;;;5003260;28;20422;-69
2023/08/03 09:18:07;;;;;;;7.20;2.00;;;;;;;;;;5004393;28;20537;-67
2023/08/03 09:20:34;;;;;;;9.93;2.20;;;;;;;;;;5005057;28;20042;-68
2023/08/03 09:23:01;;;;;;;9.65;2.22;;;;;;;;;;5003990;28;20049;-68
2023/08/03 09:25:27;;;;;;;7.65;2.20;;;;;;;;;;5006823;28;20521;-70
2023/08/03 09:27:55;;;;;;;5.68;1.77;;;;;;;;;;5004317;28;20234;-69
2023/08/03 09:30:22;;;;;;;8.32;2.10;;;;;;;;;;5008095;28;20060;-68
2023/08/03 09:32:48;;;;;;;9.85;1.73;;;;;;;;;;5003830;28;20057;-65
2023/08/03 09:35:21;;;;;;;11.50;2.03;;;;;;;;;;5002648;28;20095;-67
2023/08/03 09:37:49;;;;;;;6.50;1.50;;;;;;;;;;5000302;28;20140;-68
2023/08/03 09:40:17;;;;;;;8.35;1.77;;;;;;;;;;5003644;28;20053;-66
2023/08/03 09:42:44;;;;;;;10.45;2.30;;;;;;;;;;5003345;28;20104;-69
2023/08/03 09:45:11;;;;;;;4.10;1.25;;;;;;;;;;5002990;28;20281;-67
2023/08/03 09:47:40;;;;;;;6.75;1.65;;;;;;;;;;5006082;28;20475;-68
2023/08/03 09:50:08;;;;;;;4.30;1.60;;;;;;;;;;4999879;28;20495;-66
2023/08/03 09:52:56;;;;;;;6.90;1.30;;;;;;;;;;5000395;28;20560;-69
2023/08/03 09:55:32;;;;;;;6.10;1.30;;;;;;;;;;5003847;28;20044;-67
2023/08/03 09:58:02;;;;;;;7.65;1.60;;;;;;;;;;5004125;28;20046;-68
2023/08/03 10:00:29;;;;;;;8.18;1.50;;;;;;;;;;5004007;28;20046;-68
2023/08/03 10:03:09;;;;;;;9.85;1.67;;;;;;;;;;5004299;28;20049;-69
2023/08/03 10:05:43;;;;;;;6.05;1.70;;;;;;;;;;5002204;28;20464;-69
2023/08/03 10:08:22;;;;;;;3.45;1.30;;;;;;;;;;5002830;28;20052;-67
2023/08/03 10:10:49;;;;;;;10.40;1.88;;;;;;;;;;5005799;28;20148;-68
2023/08/03 10:13:15;;;;;;;8.23;1.40;;;;;;;;;;5002411;28;20136;-67
2023/08/03 10:15:42;;;;;;;7.55;2.00;;;;;;;;;;5005219;28;20068;-68
2023/08/03 10:18:08;;;;;;;8.00;1.50;;;;;;;;;;5003172;28;20061;-68
2023/08/03 10:20:35;;;;;;;3.25;1.38;;;;;;;;;;5001649;28;20125;-68
2023/08/03 10:23:16;;;;;;;3.50;1.45;;;;;;;;;;5002067;28;20037;-67
2023/08/03 10:26:00;;;;;;;4.22;1.13;;;;;;;;;;5004012;28;20076;-69
2023/08/03 10:28:44;;;;;;;4.90;1.10;;;;;;;;;;4998571;28;20155;-68
2023/08/03 10:31:14;;;;;;;4.00;1.40;;;;;;;;;;5003393;28;20076;-71
2023/08/03 10:33:46;;;;;;;9.48;1.90;;;;;;;;;;5000206;28;20055;-67
2023/08/03 10:36:27;;;;;;;5.85;1.48;;;;;;;;;;5000650;28;20110;-67
2023/08/03 10:38:57;;;;;;;4.38;1.30;;;;;;;;;;5003562;28;20048;-69
2023/08/03 10:41:28;;;;;;;8.13;1.40;;;;;;;;;;5002914;28;20056;-69
2023/08/03 10:44:09;;;;;;;9.32;1.50;;;;;;;;;;5002940;28;20410;-67
2023/08/03 10:46:43;;;;;;;16.85;1.40;;;;;;;;;;5001717;28;20065;-68
2023/08/03 10:49:24;;;;;;;7.07;1.50;;;;;;;;;;4998640;28;20058;-67
2023/08/03 10:51:50;;;;;;;4.72;1.60;;;;;;;;;;4998882;28;20433;-68
2023/08/03 10:54:18;;;;;;;4.57;1.50;;;;;;;;;;5002087;28;20041;-74
2023/08/03 10:57:28;;;;;;;7.32;1.20;;;;;;;;;;4998166;28;20049;-67
2023/08/03 11:01:08;;;;;;;5.40;1.33;;;;;;;;;;5001672;28;20060;-69
2023/08/03 11:04:50;;;;;;;3.70;1.23;;;;;;;;;;5001482;28;20049;-71
2023/08/03 11:08:29;;;;;;;5.93;1.38;;;;;;;;;;4997774;28;20091;-69
2023/08/03 11:12:09;;;;;;;7.47;1.48;;;;;;;;;;5007996;28;20046;-68
2023/08/03 11:15:50;;;;;;;8.30;1.50;;;;;;;;;;5001522;28;20088;-70
2023/08/03 11:19:33;;;;;;;7.13;1.40;;;;;;;;;;5004439;28;20705;-69
2023/08/03 11:23:13;;;;;;;5.85;1.20;;;;;;;;;;5002477;28;20270;-72
2023/08/03 11:26:53;;;;;;;8.32;1.35;;;;;;;;;;5002691;28;20060;-68
2023/08/03 11:30:34;;;;;;;4.70;1.30;;;;;;;;;;5005477;28;20067;-70
2023/08/03 11:34:16;;;;;;;10.88;1.67;;;;;;;;;;5000233;28;20057;-67
2023/08/03 11:37:56;;;;;;;14.27;1.50;;;;;;;;;;4996565;28;20046;-68
2023/08/03 11:41:36;;;;;;;6.70;1.60;;;;;;;;;;4999779;28;20563;-68
2023/08/03 11:45:16;;;;;;;7.05;1.40;;;;;;;;;;5000813;28;20046;-67
2023/08/03 11:48:58;;;;;;;4.20;1.45;;;;;;;;;;5000676;28;20890;-66
2023/08/03 11:52:38;;;;;;;3.65;1.23;;;;;;;;;;5000330;28;20053;-67
2023/08/03 11:56:19;;;;;;;7.25;1.35;;;;;;;;;;5003036;28;20045;-66
2023/08/03 11:59:59;;;;;;;7.82;1.30;;;;;;;;;;4996419;28;20081;-67
2023/08/03 12:03:50;;;;;;;7.80;1.42;;;;;;;;;;4996553;28;20057;-66
2023/08/03 12:07:30;;;;;;;11.07;1.80;;;;;;;;;;4998860;28;20046;-66
2023/08/03 12:11:16;;;;;;;5.15;1.40;;;;;;;;;;5003219;28;20156;-65
2023/08/03 12:14:56;;;;;;;4.25;1.35;;;;;;;;;;5002630;28;20150;-67
2023/08/03 12:18:37;;;;;;;9.18;1.95;;;;;;;;;;4998944;28;20053;-68
2023/08/03 12:22:17;;;;;;;3.05;1.30;;;;;;;;;;5001384;28;20041;-67
2023/08/03 12:25:57;;;;;;;4.78;1.30;;;;;;;;;;5002353;28;20044;-66
2023/08/03 12:29:38;;;;;;;6.65;1.52;;;;;;;;;;4999898;28;20760;-67
2023/08/03 12:33:18;;;;;;;12.15;1.35;;;;;;;;;;4995017;28;20065;-67
2023/08/03 12:36:58;;;;;;;5.70;1.15;;;;;;;;;;4999174;28;20046;-67
2023/08/03 12:40:39;;;;;;;5.93;1.33;;;;;;;;;;4997025;28;20703;-65
2023/08/03 12:44:19;;;;;;;9.68;1.35;;;;;;;;;;4994561;28;20130;-68
2023/08/03 12:47:59;;;;;;;11.48;1.60;;;;;;;;;;4998767;28;20049;-66
2023/08/03 12:51:40;;;;;;;7.53;1.50;;;;;;;;;;4999499;28;20045;-66
2023/08/03 12:55:22;;;;;;;6.45;1.25;;;;;;;;;;4999982;28;20050;-65
2023/08/03 12:59:02;;;;;;;5.82;1.40;;;;;;;;;;4997881;28;20061;-66
2023/08/03 13:02:42;;;;;;;7.28;1.67;;;;;;;;;;4997043;28;20072;-66
2023/08/03 13:06:23;;;;;;;6.50;1.60;;;;;;;;;;4996558;28;20073;-67
2023/08/03 13:10:03;;;;;;;6.35;1.70;;;;;;;;;;5000250;28;20041;-69
2023/08/03 13:13:43;;;;;;;18.13;2.17;;;;;;;;;;4997612;28;20053;-67
2023/08/03 13:17:24;;;;;;;9.98;1.50;;;;;;;;;;4997285;28;20376;-67
2023/08/03 13:21:05;;;;;;;8.63;1.73;;;;;;;;;;5002472;28;20037;-66
2023/08/03 13:24:44;;;;;;;8.73;1.30;;;;;;;;;;5000158;28;20053;-66
2023/08/03 13:28:25;;;;;;;12.48;1.63;;;;;;;;;;4998686;28;21129;-67
2023/08/03 13:32:05;;;;;;;7.00;1.55;;;;;;;;;;5000671;28;20049;-67
2023/08/03 13:35:45;;;;;;;7.20;1.40;;;;;;;;;;5002067;28;20133;-66
2023/08/03 13:39:26;;;;;;;6.32;1.30;;;;;;;;;;5001393;28;20050;-67
2023/08/03 13:43:06;;;;;;;10.95;1.70;;;;;;;;;;5000833;28;20056;-67
2023/08/03 13:46:46;;;;;;;17.63;1.85;;;;;;;;;;5003262;28;20050;-66
2023/08/03 13:50:27;;;;;;;13.50;2.20;;;;;;;;;;5003969;28;22978;-69
2023/08/03 13:54:07;;;;;;;8.32;1.77;;;;;;;;;;5004154;28;20100;-67
2023/08/03 13:57:47;;;;;;;10.45;2.17;;;;;;;;;;5003137;28;20203;-67
2023/08/03 14:01:28;;;;;;;7.68;1.70;;;;;;;;;;5002700;28;20049;-67
2023/08/03 14:05:08;;;;;;;10.82;2.22;;;;;;;;;;5004983;28;20049;-66
2023/08/03 14:08:49;;;;;;;12.25;1.80;;;;;;;;;;5002578;28;20080;-66
2023/08/03 14:12:29;;;;;;;8.82;1.92;;;;;;;;;;5007627;28;20048;-68
2023/08/03 14:16:09;;;;;;;9.23;1.70;;;;;;;;;;4998761;28;20141;-66
2023/08/03 14:19:50;;;;;;;10.07;2.05;;;;;;;;;;4998008;28;20041;-64
2023/08/03 14:23:30;;;;;;;8.50;1.60;;;;;;;;;;4997526;28;20126;-67
2023/08/03 14:27:10;;;;;;;9.70;1.83;;;;;;;;;;4997496;28;20044;-66
2023/08/03 14:30:51;;;;;;;11.63;2.05;;;;;;;;;;5002826;28;20069;-65
2023/08/03 14:34:31;;;;;;;12.10;2.03;;;;;;;;;;4993081;28;20667;-65
2023/08/03 14:38:11;;;;;;;6.55;1.77;;;;;;;;;;4999548;28;20045;-64
2023/08/03 14:41:52;;;;;;;22.00;2.08;;;;;;;;;;4998419;28;20049;-65
2023/08/03 14:45:32;;;;;;;4.03;1.42;;;;;;;;;;4995480;28;20049;-68
2023/08/03 14:49:12;;;;;;;16.20;2.30;;;;;;;;;;5001192;28;20057;-67
2023/08/03 14:52:53;;;;;;;9.13;1.70;;;;;;;;;;5001063;28;20045;-67
2023/08/03 14:56:39;;;;;;;9.38;1.77;;;;;;;;;;5001679;28;20509;-69
2023/08/03 15:00:19;;;;;;;7.85;1.75;;;;;;;;;;5002726;28;20061;-69
2023/08/03 15:04:00;;;;;;;8.35;1.90;;;;;;;;;;5001464;28;20103;-72
2023/08/03 15:07:41;;;;;;;8.88;2.08;;;;;;;;;;5001880;28;20551;-71
2023/08/03 15:11:22;;;;;;;8.80;1.95;;;;;;;;;;5007831;28;20045;-71
2023/08/03 15:15:01;;;;;;;5.50;1.83;;;;;;;;;;5005213;28;20071;-70
2023/08/03 15:18:41;;;;;;;9.70;2.45;;;;;;;;;;5000360;28;20081;-65
2023/08/03 15:22:22;;;;;;;11.68;2.40;;;;;;;;;;4999828;28;20041;-66
2023/08/03 15:26:02;;;;;;;10.93;2.22;;;;;;;;;;5001754;28;20089;-68
2023/08/03 15:29:43;;;;;;;8.82;2.03;;;;;;;;;;5004979;28;20064;-70
2023/08/03 15:33:23;;;;;;;13.15;2.10;;;;;;;;;;5003451;28;20061;-72
2023/08/03 15:37:03;;;;;;;11.50;2.20;;;;;;;;;;5000488;28;20711;-69
2023/08/03 15:40:37;;;;;;;6.55;1.52;;;;;;;;;;5004541;28;20068;-70
2023/08/03 15:44:17;;;;;;;10.65;2.38;;;;;;;;;;5006524;28;20513;-70
2023/08/03 15:47:58;;;;;;;9.48;1.80;;;;;;;;;;5003156;28;20088;-68
2023/08/03 15:51:38;;;;;;;12.75;2.33;;;;;;;;;;5003908;28;20065;-70
2023/08/03 15:55:18;;;;;;;13.63;2.85;;;;;;;;;;5003765;28;20502;-70
2023/08/03 15:58:59;;;;;;;12.65;2.83;;;;;;;;;;5002536;28;20620;-68
2023/08/03 16:02:40;;;;;;;20.52;3.38;;;;;;;;;;5005151;28;20053;-75
2023/08/03 16:06:26;;;;;;;19.08;3.78;;;;;;;;;;5005053;28;20045;-74
2023/08/03 16:10:08;;;;;;;21.98;3.90;;;;;;;;;;5003681;28;20053;-75
2023/08/03 16:13:46;;;;;;;19.35;3.60;;;;;;;;;;5004333;28;20056;-74
2023/08/03 16:17:26;;;;;;;21.60;3.88;;;;;;;;;;5004171;28;20041;-76
2023/08/03 16:21:07;;;;;;;21.13;3.58;;;;;;;;;;5002298;28;20507;-74
2023/08/03 16:24:47;;;;;;;19.35;3.83;;;;;;;;;;5004497;28;20057;-74
2023/08/03 16:28:30;;;;;;;16.42;3.13;;;;;;;;;;5002203;28;20554;-75